Placerville, Colorado
Current Conditions -  °F | °C
As of 12:55 PM on Wednesday 17 Dec 2014 (Local Time) from KTEX Reporting Station
Overcast Overcast  
Wind Chill: 32°   Ceiling: 3300
Heat Index: 32°   Visibility: 10mi
Dew Point: 22°   Wind: 0mph
Humidity: 66%   Direction: NA
Pressure: 29.95"   Gusts: NA
Location:  38.02°N, 108.05°W
Report Text: KTEX 171955Z AUTO 00000KT 10SM BKN033 OVC039 00/M06 A2995 RMK AO2 T00001056
Loading
Personal Weather Stations






























Interactive Weather Map New forecast layout! Learn more

10-Day Weather Forecast

Advertisements
Track Severe Weather on mobile